Time;durP1;ratioP1;P1;durP2;ratioP2;P2;SDS_P1;SDS_P2;PMS_P1;PMS_P2;Temp;Humidity;BMP_temperature;BMP_pressure;BME280_temperature;BME280_humidity;BME280_pressure;Samples;Min_cycle;Max_cycle;Signal;HPM_P1;HPM_P2
2022/02/06 00:02:28;;;;;;;4.60;1.85;;;;;;;;;;5020843;28;20025;-72
2022/02/06 00:04:54;;;;;;;7.80;1.85;;;;;;;;;;5022768;28;20095;-70
2022/02/06 00:07:21;;;;;;;6.68;1.80;;;;;;;;;;5022704;28;20021;-73
2022/02/06 00:09:48;;;;;;;3.55;1.50;;;;;;;;;;5022743;28;20044;-72
2022/02/06 00:12:14;;;;;;;5.05;1.95;;;;;;;;;;5021170;28;20025;-72
2022/02/06 00:14:40;;;;;;;6.38;1.88;;;;;;;;;;5022253;28;20044;-72
2022/02/06 00:17:08;;;;;;;6.03;1.80;;;;;;;;;;5022403;28;20048;-72
2022/02/06 00:19:34;;;;;;;11.93;3.30;;;;;;;;;;5022251;28;20603;-72
2022/02/06 00:22:03;;;;;;;6.88;1.98;;;;;;;;;;5021135;28;20017;-72
2022/02/06 00:24:41;;;;;;;7.03;1.95;;;;;;;;;;5022120;28;20087;-72
2022/02/06 00:27:13;;;;;;;5.43;1.65;;;;;;;;;;5022483;28;20327;-73
2022/02/06 00:29:53;;;;;;;6.68;2.10;;;;;;;;;;5022462;28;20044;-72
2022/02/06 00:32:58;;;;;;;4.00;1.63;;;;;;;;;;5039092;28;20070;-72
2022/02/06 00:35:30;;;;;;;;;;;;;;;;;;5022019;28;20053;-72
2022/02/06 00:43:14;;;;;;;8.57;1.88;;;;;;;;;;5021220;28;20056;-72
2022/02/06 00:45:40;;;;;;;6.07;1.98;;;;;;;;;;5021879;28;20022;-72
2022/02/06 00:48:06;;;;;;;4.85;1.70;;;;;;;;;;5021212;28;20030;-72
2022/02/06 00:50:36;;;;;;;5.72;2.50;;;;;;;;;;5021502;28;20033;-72
2022/02/06 00:53:06;;;;;;;7.03;1.98;;;;;;;;;;5021254;28;20033;-72
2022/02/06 00:55:33;;;;;;;7.22;1.90;;;;;;;;;;5021577;28;20469;-72
2022/02/06 00:57:59;;;;;;;5.32;1.95;;;;;;;;;;5021817;28;20021;-72
2022/02/06 01:00:25;;;;;;;4.90;2.10;;;;;;;;;;5021788;28;20025;-72
2022/02/06 01:02:51;;;;;;;5.10;1.55;;;;;;;;;;5019819;28;20028;-72
2022/02/06 01:05:18;;;;;;;6.80;2.40;;;;;;;;;;5021682;28;20029;-72
2022/02/06 01:07:44;;;;;;;6.10;2.28;;;;;;;;;;5021518;28;20092;-72
2022/02/06 01:10:10;;;;;;;7.85;2.17;;;;;;;;;;5021808;28;20041;-73
2022/02/06 01:12:40;;;;;;;5.93;1.92;;;;;;;;;;5004100;28;20025;-72
2022/02/06 01:15:12;;;;;;;6.07;2.10;;;;;;;;;;5021843;28;20034;-72
2022/02/06 01:17:45;;;;;;;5.72;2.13;;;;;;;;;;5020511;28;20666;-72
2022/02/06 01:20:22;;;;;;;5.70;2.10;;;;;;;;;;5021054;28;20417;-73
2022/02/06 01:22:54;;;;;;;4.95;1.90;;;;;;;;;;5021417;28;20481;-73
2022/02/06 01:25:29;;;;;;;6.60;2.20;;;;;;;;;;5022408;28;20036;-72
2022/02/06 01:28:04;;;;;;;7.78;2.75;;;;;;;;;;5020313;28;20037;-73
2022/02/06 01:33:10;;;;;;;4.57;2.00;;;;;;;;;;5041127;28;20477;-73
2022/02/06 01:38:21;;;;;;;6.85;2.30;;;;;;;;;;5041921;28;20037;-73
2022/02/06 01:43:22;;;;;;;6.10;1.95;;;;;;;;;;5001919;28;20043;-72
2022/02/06 02:02:28;;;;;;;6.88;2.58;;;;;;;;;;5024255;28;20040;-73
2022/02/06 02:16:37;;;;;;;3.40;1.80;;;;;;;;;;5023420;28;20029;-73
2022/02/06 02:18:36;;;;;;;6.07;1.98;;;;;;;;;;5016154;28;20084;-72
2022/02/06 02:31:26;;;;;;;4.15;2.10;;;;;;;;;;5027259;28;20033;-72
2022/02/06 02:47:20;;;;;;;7.78;2.58;;;;;;;;;;5026627;28;20032;-72
2022/02/06 02:49:53;;;;;;;7.70;2.30;;;;;;;;;;5009165;28;20608;-72
2022/02/06 02:52:44;;;;;;;6.22;2.20;;;;;;;;;;5025537;28;20104;-72
2022/02/06 03:00:35;;;;;;;6.60;2.92;;;;;;;;;;5026583;28;20030;-73
2022/02/06 03:03:17;;;;;;;6.50;2.87;;;;;;;;;;5025337;28;20022;-72
2022/02/06 03:05:47;;;;;;;7.03;3.13;;;;;;;;;;5026351;28;20036;-72
2022/02/06 03:08:13;;;;;;;6.70;2.50;;;;;;;;;;5026106;28;20041;-73
2022/02/06 03:10:39;;;;;;;8.55;2.25;;;;;;;;;;5026822;28;20032;-72
2022/02/06 03:13:09;;;;;;;9.98;2.42;;;;;;;;;;5026267;28;20035;-73
2022/02/06 03:18:14;;;;;;;9.60;3.33;;;;;;;;;;5026174;28;20030;-72
2022/02/06 03:20:40;;;;;;;8.38;2.70;;;;;;;;;;5026025;28;20036;-73
2022/02/06 03:23:07;;;;;;;8.65;3.00;;;;;;;;;;5025933;28;20025;-72
2022/02/06 03:25:36;;;;;;;9.45;3.28;;;;;;;;;;5028983;28;20245;-73
2022/02/06 03:28:02;;;;;;;6.35;2.58;;;;;;;;;;5014743;28;20079;-72
2022/02/06 03:30:30;;;;;;;7.15;3.20;;;;;;;;;;5016102;28;20026;-72
2022/02/06 03:32:56;;;;;;;7.97;3.40;;;;;;;;;;5018953;28;20878;-72
2022/02/06 03:35:23;;;;;;;12.70;3.35;;;;;;;;;;4998822;28;20391;-72
2022/02/06 03:37:50;;;;;;;9.45;3.10;;;;;;;;;;5024088;28;20485;-72
2022/02/06 03:40:23;;;;;;;8.10;2.97;;;;;;;;;;5016354;28;20023;-72
2022/02/06 03:43:03;;;;;;;7.43;2.80;;;;;;;;;;5018195;28;20044;-72
2022/02/06 03:45:41;;;;;;;7.15;2.55;;;;;;;;;;5020019;28;20382;-72
2022/02/06 03:48:14;;;;;;;9.48;2.97;;;;;;;;;;5018906;28;20116;-72
2022/02/06 03:50:46;;;;;;;7.18;3.05;;;;;;;;;;5019272;28;20060;-72
2022/02/06 03:53:14;;;;;;;4.97;2.63;;;;;;;;;;5016070;28;20065;-73
2022/02/06 03:55:41;;;;;;;8.70;2.75;;;;;;;;;;5016776;28;20033;-73
2022/02/06 03:58:07;;;;;;;8.10;2.55;;;;;;;;;;5014009;28;20021;-72
2022/02/06 04:00:33;;;;;;;5.90;2.50;;;;;;;;;;5019876;28;20022;-72
2022/02/06 04:02:59;;;;;;;5.68;2.50;;;;;;;;;;5014179;28;20613;-72
2022/02/06 04:05:25;;;;;;;8.15;2.92;;;;;;;;;;5013964;28;20122;-72
2022/02/06 04:07:52;;;;;;;3.78;2.42;;;;;;;;;;5010500;28;20489;-73
2022/02/06 04:10:19;;;;;;;7.45;2.40;;;;;;;;;;5012500;28;20571;-72
2022/02/06 04:12:47;;;;;;;5.85;2.50;;;;;;;;;;5017572;28;20044;-72
2022/02/06 04:15:27;;;;;;;6.93;2.05;;;;;;;;;;5011087;28;20029;-72
2022/02/06 04:18:09;;;;;;;7.88;2.30;;;;;;;;;;5013364;28;20044;-73
2022/02/06 04:20:35;;;;;;;6.50;2.13;;;;;;;;;;5014938;28;20432;-72
2022/02/06 04:23:01;;;;;;;7.38;1.90;;;;;;;;;;5010599;28;20025;-72
2022/02/06 04:25:28;;;;;;;7.88;2.30;;;;;;;;;;5011073;28;20026;-72
2022/02/06 04:27:54;;;;;;;5.38;2.00;;;;;;;;;;5002634;28;20033;-72
2022/02/06 04:30:20;;;;;;;6.57;1.95;;;;;;;;;;5007989;28;20025;-72
2022/02/06 04:32:46;;;;;;;6.25;2.50;;;;;;;;;;5020995;28;20045;-72
2022/02/06 04:35:17;;;;;;;4.97;1.58;;;;;;;;;;5022474;28;20048;-72
2022/02/06 04:53:58;;;;;;;9.50;2.22;;;;;;;;;;4985272;28;20031;-72
2022/02/06 05:15:48;;;;;;;8.25;2.63;;;;;;;;;;5022097;28;20632;-72
2022/02/06 05:26:41;;;;;;;7.28;2.58;;;;;;;;;;5008819;28;20037;-72
2022/02/06 05:34:09;;;;;;;7.82;2.90;;;;;;;;;;5019324;28;20123;-72
2022/02/06 05:36:35;;;;;;;8.20;4.10;;;;;;;;;;5002708;28;20025;-72
2022/02/06 05:39:01;;;;;;;11.93;3.67;;;;;;;;;;5020059;28;20108;-72
2022/02/06 05:41:28;;;;;;;7.25;3.50;;;;;;;;;;5018710;28;20788;-72
2022/02/06 05:43:54;;;;;;;8.77;3.83;;;;;;;;;;5019383;28;20057;-72
2022/02/06 05:46:20;;;;;;;6.00;3.08;;;;;;;;;;5002260;28;20029;-72
2022/02/06 05:48:46;;;;;;;10.38;2.70;;;;;;;;;;5019486;28;20041;-72
2022/02/06 05:51:15;;;;;;;7.90;2.90;;;;;;;;;;5019150;28;20026;-72
2022/02/06 05:53:42;;;;;;;7.53;2.58;;;;;;;;;;5018187;28;20619;-72
2022/02/06 05:56:08;;;;;;;7.85;2.90;;;;;;;;;;5017372;28;20029;-72
2022/02/06 05:58:34;;;;;;;6.95;2.45;;;;;;;;;;5019057;28;20083;-73
2022/02/06 06:01:00;;;;;;;10.70;2.78;;;;;;;;;;5022146;28;20482;-72
2022/02/06 06:03:26;;;;;;;6.40;3.88;;;;;;;;;;5005533;28;20198;-72
2022/02/06 06:05:53;;;;;;;8.18;2.90;;;;;;;;;;5021674;28;20030;-72
2022/02/06 06:08:20;;;;;;;8.88;2.88;;;;;;;;;;5022749;28;20045;-72
2022/02/06 06:10:46;;;;;;;9.23;3.00;;;;;;;;;;5022660;28;20089;-73
2022/02/06 06:13:13;;;;;;;12.00;3.00;;;;;;;;;;5023097;28;20080;-72
2022/02/06 06:15:39;;;;;;;11.77;2.80;;;;;;;;;;5023299;28;20528;-72
2022/02/06 06:18:08;;;;;;;8.75;2.88;;;;;;;;;;5024508;28;20022;-72
2022/02/06 06:20:36;;;;;;;4.80;2.50;;;;;;;;;;5040932;28;20041;-73
2022/02/06 06:23:02;;;;;;;5.97;2.80;;;;;;;;;;5042382;28;20032;-72
2022/02/06 06:25:36;;;;;;;9.48;2.63;;;;;;;;;;5032208;28;20037;-73
2022/02/06 06:28:02;;;;;;;11.50;2.65;;;;;;;;;;5022514;28;20052;-72
2022/02/06 06:30:28;;;;;;;8.40;2.55;;;;;;;;;;5022213;28;20030;-72
2022/02/06 06:32:54;;;;;;;5.47;2.47;;;;;;;;;;5021037;28;20037;-72
2022/02/06 06:35:20;;;;;;;10.02;2.42;;;;;;;;;;5022224;28;20393;-72
2022/02/06 06:37:48;;;;;;;15.35;2.53;;;;;;;;;;5022248;28;20029;-72
2022/02/06 06:40:14;;;;;;;4.13;2.17;;;;;;;;;;5022444;28;20030;-72
2022/02/06 06:42:40;;;;;;;7.07;2.13;;;;;;;;;;5003371;28;20841;-72
2022/02/06 06:45:07;;;;;;;5.93;1.90;;;;;;;;;;5022645;28;20090;-73
2022/02/06 06:47:33;;;;;;;7.00;1.70;;;;;;;;;;5022084;28;20029;-72
2022/02/06 06:49:59;;;;;;;6.72;3.42;;;;;;;;;;5022606;28;20037;-72
2022/02/06 06:52:28;;;;;;;11.48;3.63;;;;;;;;;;5021124;28;20021;-72
2022/02/06 06:55:01;;;;;;;9.27;2.92;;;;;;;;;;5021868;28;20944;-72
2022/02/06 06:57:34;;;;;;;9.55;4.20;;;;;;;;;;5022395;28;20033;-72
2022/02/06 07:02:32;;;;;;;;;;;;;;;;;;5022887;28;20044;-72
2022/02/06 07:04:59;;;;;;;21.98;5.18;;;;;;;;;;5021916;28;19948;-72
2022/02/06 07:07:26;;;;;;;11.35;4.88;;;;;;;;;;5021882;28;20025;-72
2022/02/06 07:09:52;;;;;;;8.85;5.05;;;;;;;;;;5020900;28;20478;-72
2022/02/06 07:12:19;;;;;;;13.07;5.38;;;;;;;;;;5021876;28;20057;-72
2022/02/06 07:14:45;;;;;;;13.55;5.57;;;;;;;;;;5022116;28;20129;-72
2022/02/06 07:17:12;;;;;;;12.10;5.78;;;;;;;;;;5021514;28;20029;-72
2022/02/06 07:19:39;;;;;;;16.17;6.65;;;;;;;;;;5035995;28;20112;-72
2022/02/06 07:22:07;;;;;;;18.13;8.18;;;;;;;;;;5041794;28;20466;-73
2022/02/06 07:24:34;;;;;;;12.45;7.30;;;;;;;;;;5021381;28;20040;-73
2022/02/06 07:27:03;;;;;;;12.43;7.65;;;;;;;;;;5021260;28;20642;-72
2022/02/06 07:29:30;;;;;;;13.77;8.77;;;;;;;;;;5021463;28;20099;-72
2022/02/06 07:31:59;;;;;;;17.75;9.25;;;;;;;;;;5021618;28;20032;-72
2022/02/06 07:34:26;;;;;;;20.38;9.18;;;;;;;;;;5019554;28;20068;-73
2022/02/06 07:36:52;;;;;;;15.25;9.07;;;;;;;;;;5021416;28;20105;-72
2022/02/06 07:39:18;;;;;;;18.58;9.57;;;;;;;;;;5022241;28;20167;-73
2022/02/06 07:41:44;;;;;;;18.30;9.23;;;;;;;;;;5021787;28;20028;-73
2022/02/06 07:44:10;;;;;;;13.75;7.88;;;;;;;;;;5020095;28;20425;-72
2022/02/06 07:46:47;;;;;;;14.02;8.00;;;;;;;;;;5003152;28;20033;-72
2022/02/06 07:49:15;;;;;;;12.23;7.25;;;;;;;;;;5021062;28;20172;-72
2022/02/06 07:51:41;;;;;;;16.67;8.93;;;;;;;;;;5021246;28;20021;-73
2022/02/06 07:54:08;;;;;;;15.63;8.13;;;;;;;;;;5021147;28;20037;-73
2022/02/06 07:56:35;;;;;;;14.40;8.13;;;;;;;;;;5019375;28;20083;-73
2022/02/06 07:59:01;;;;;;;12.10;6.43;;;;;;;;;;5019986;28;20107;-73
2022/02/06 08:01:27;;;;;;;9.27;5.80;;;;;;;;;;5021215;28;20101;-73
2022/02/06 08:03:54;;;;;;;8.95;5.05;;;;;;;;;;5020956;28;20029;-73
2022/02/06 08:06:20;;;;;;;10.85;5.57;;;;;;;;;;5020605;28;20063;-73
2022/02/06 08:08:46;;;;;;;11.43;5.20;;;;;;;;;;5019174;28;20529;-73
2022/02/06 08:11:14;;;;;;;8.95;5.35;;;;;;;;;;5000747;28;20030;-72
2022/02/06 08:13:50;;;;;;;9.52;6.10;;;;;;;;;;4999390;28;20050;-73
2022/02/06 08:16:17;;;;;;;8.20;5.28;;;;;;;;;;5000799;28;20030;-73
2022/02/06 08:18:43;;;;;;;10.00;5.00;;;;;;;;;;5014580;28;20036;-73
2022/02/06 08:21:09;;;;;;;13.18;5.80;;;;;;;;;;5022758;28;20068;-72
2022/02/06 08:23:35;;;;;;;11.43;5.60;;;;;;;;;;5039880;28;20033;-72
2022/02/06 08:26:02;;;;;;;10.70;6.03;;;;;;;;;;5038558;28;20029;-73
2022/02/06 08:28:28;;;;;;;13.38;7.07;;;;;;;;;;5040530;28;20703;-73
2022/02/06 08:30:55;;;;;;;14.90;7.05;;;;;;;;;;5040370;28;20400;-73
2022/02/06 08:33:21;;;;;;;11.00;5.70;;;;;;;;;;5039733;28;20029;-71
2022/02/06 08:35:47;;;;;;;9.32;4.90;;;;;;;;;;5015944;28;20045;-73
2022/02/06 08:38:13;;;;;;;9.60;5.90;;;;;;;;;;4998987;28;20117;-73
2022/02/06 08:40:42;;;;;;;8.52;5.25;;;;;;;;;;5000589;28;20038;-73
2022/02/06 08:43:09;;;;;;;10.30;6.45;;;;;;;;;;5005042;28;20029;-73
2022/02/06 08:45:35;;;;;;;10.07;6.22;;;;;;;;;;5020010;28;20045;-73
2022/02/06 08:48:01;;;;;;;10.23;5.30;;;;;;;;;;5020034;28;20025;-73
2022/02/06 08:50:28;;;;;;;7.68;3.65;;;;;;;;;;5019553;28;20474;-72
2022/02/06 08:52:58;;;;;;;5.90;3.20;;;;;;;;;;5030890;28;20536;-72
2022/02/06 08:55:25;;;;;;;9.70;4.13;;;;;;;;;;5018093;28;20095;-73
2022/02/06 08:57:51;;;;;;;8.02;4.65;;;;;;;;;;5020253;28;20057;-73
2022/02/06 09:00:21;;;;;;;7.20;4.55;;;;;;;;;;5020126;28;20049;-73
2022/02/06 09:02:48;;;;;;;8.75;4.88;;;;;;;;;;5020225;28;20072;-72
2022/02/06 09:05:15;;;;;;;6.15;3.72;;;;;;;;;;5018051;28;20037;-73
2022/02/06 09:07:42;;;;;;;8.50;4.05;;;;;;;;;;5019778;28;20030;-72
2022/02/06 09:10:09;;;;;;;8.75;4.22;;;;;;;;;;5036244;28;20591;-72
2022/02/06 09:12:40;;;;;;;8.43;4.00;;;;;;;;;;5039623;28;20740;-72
2022/02/06 09:15:07;;;;;;;7.82;3.53;;;;;;;;;;5039827;28;20033;-72
2022/02/06 09:17:33;;;;;;;12.20;4.45;;;;;;;;;;5039971;28;20105;-72
2022/02/06 09:19:59;;;;;;;7.63;3.25;;;;;;;;;;5038436;28;20517;-72
2022/02/06 09:22:25;;;;;;;9.40;3.28;;;;;;;;;;5039949;28;20104;-72
2022/02/06 09:24:51;;;;;;;5.88;2.40;;;;;;;;;;5039525;28;20033;-72
2022/02/06 09:27:17;;;;;;;5.95;2.50;;;;;;;;;;5020348;28;20094;-72
2022/02/06 09:29:43;;;;;;;7.35;3.05;;;;;;;;;;5018045;28;20107;-72
2022/02/06 09:37:04;;;;;;;8.85;3.45;;;;;;;;;;5023831;28;20040;-72
2022/02/06 09:39:33;;;;;;;8.57;3.80;;;;;;;;;;5022011;28;20042;-72
2022/02/06 09:42:00;;;;;;;9.82;4.97;;;;;;;;;;5023256;28;20033;-73
2022/02/06 09:44:28;;;;;;;12.07;5.00;;;;;;;;;;5023877;28;20029;-72
2022/02/06 09:46:56;;;;;;;11.88;5.05;;;;;;;;;;5041941;28;20115;-72
2022/02/06 09:49:23;;;;;;;10.15;4.80;;;;;;;;;;5043341;28;20040;-72
2022/02/06 09:51:50;;;;;;;7.82;4.55;;;;;;;;;;5043559;28;20029;-72
2022/02/06 09:54:16;;;;;;;7.32;4.63;;;;;;;;;;5041281;28;20159;-72
2022/02/06 09:56:48;;;;;;;12.73;5.13;;;;;;;;;;5041465;28;20067;-72
2022/02/06 09:59:18;;;;;;;8.15;4.90;;;;;;;;;;5042867;28;20062;-72
2022/02/06 10:01:46;;;;;;;11.95;6.63;;;;;;;;;;5043311;28;20105;-72
2022/02/06 10:04:13;;;;;;;9.57;5.68;;;;;;;;;;5022022;28;20409;-73
2022/02/06 10:06:43;;;;;;;15.80;6.10;;;;;;;;;;5022489;28;20029;-72
2022/02/06 10:09:09;;;;;;;12.35;5.68;;;;;;;;;;5022667;28;20040;-72
2022/02/06 10:11:40;;;;;;;9.38;5.55;;;;;;;;;;5023443;28;20022;-73
2022/02/06 10:14:06;;;;;;;14.85;7.05;;;;;;;;;;5023210;28;20556;-73
2022/02/06 10:16:32;;;;;;;15.30;7.28;;;;;;;;;;5021337;28;20029;-73
2022/02/06 10:18:58;;;;;;;16.42;7.35;;;;;;;;;;5023178;28;20574;-72
2022/02/06 10:21:32;;;;;;;9.95;6.15;;;;;;;;;;5022823;28;20021;-72
2022/02/06 10:24:07;;;;;;;13.15;6.63;;;;;;;;;;5023412;28;20018;-73
2022/02/06 10:31:48;;;;;;;8.93;6.43;;;;;;;;;;5022524;28;20545;-72
2022/02/06 10:34:26;;;;;;;12.98;6.60;;;;;;;;;;5021068;28;20789;-72
2022/02/06 10:37:08;;;;;;;15.00;6.60;;;;;;;;;;5022726;28;20049;-72
2022/02/06 10:39:37;;;;;;;13.48;7.15;;;;;;;;;;5022545;28;20072;-72
2022/02/06 10:42:03;;;;;;;14.23;6.70;;;;;;;;;;5022526;28;20029;-72
2022/02/06 10:44:30;;;;;;;14.85;8.50;;;;;;;;;;5022767;28;20044;-72
2022/02/06 10:46:58;;;;;;;9.82;7.10;;;;;;;;;;5039163;28;20044;-72
2022/02/06 10:49:25;;;;;;;13.18;7.25;;;;;;;;;;5031238;28;20046;-72
2022/02/06 10:52:04;;;;;;;15.25;7.45;;;;;;;;;;5022550;28;20485;-73
2022/02/06 10:54:30;;;;;;;15.27;7.38;;;;;;;;;;5022369;28;20188;-72
2022/02/06 10:57:07;;;;;;;16.30;8.38;;;;;;;;;;5020423;28;20030;-72
2022/02/06 10:59:37;;;;;;;13.80;7.40;;;;;;;;;;5022472;28;20033;-72
2022/02/06 11:02:07;;;;;;;15.57;8.45;;;;;;;;;;5020832;28;20055;-73
2022/02/06 11:04:35;;;;;;;13.43;7.18;;;;;;;;;;5004848;28;20041;-72
2022/02/06 11:07:13;;;;;;;17.27;8.27;;;;;;;;;;5022577;28;20084;-73
2022/02/06 11:09:39;;;;;;;13.57;8.32;;;;;;;;;;5022694;28;20044;-72
2022/02/06 11:12:11;;;;;;;14.32;8.27;;;;;;;;;;5022126;28;20021;-72
2022/02/06 11:14:45;;;;;;;14.05;7.50;;;;;;;;;;5020984;28;20096;-72
2022/02/06 11:17:22;;;;;;;17.50;8.10;;;;;;;;;;5022150;28;20578;-72
2022/02/06 11:19:58;;;;;;;15.90;8.48;;;;;;;;;;5021725;28;20297;-72
2022/02/06 11:22:25;;;;;;;15.82;7.97;;;;;;;;;;5021640;28;20055;-72
2022/02/06 11:24:51;;;;;;;11.00;7.60;;;;;;;;;;5019633;28;20040;-72
2022/02/06 11:27:17;;;;;;;13.20;7.70;;;;;;;;;;5019565;28;20021;-72
2022/02/06 11:29:43;;;;;;;11.20;7.18;;;;;;;;;;5016481;28;20049;-72
2022/02/06 11:32:11;;;;;;;12.40;7.03;;;;;;;;;;5021504;28;20460;-72
2022/02/06 11:34:42;;;;;;;12.48;7.45;;;;;;;;;;5021633;28;20117;-72
2022/02/06 11:45:37;;;;;;;14.82;8.02;;;;;;;;;;5009400;28;20036;-72
2022/02/06 11:48:08;;;;;;;13.85;6.82;;;;;;;;;;5021352;28;20036;-72
2022/02/06 11:50:37;;;;;;;13.63;6.95;;;;;;;;;;5019985;28;20047;-71
2022/02/06 11:53:04;;;;;;;10.63;6.35;;;;;;;;;;5021366;28;20041;-72
2022/02/06 11:55:33;;;;;;;14.88;6.82;;;;;;;;;;5019167;28;20080;-72
2022/02/06 11:58:18;;;;;;;14.82;8.10;;;;;;;;;;5020212;28;20517;-72
2022/02/06 12:00:44;;;;;;;13.25;7.22;;;;;;;;;;5021442;28;20025;-72
2022/02/06 12:03:14;;;;;;;14.23;7.32;;;;;;;;;;5021393;28;20269;-73
2022/02/06 12:05:59;;;;;;;20.98;7.30;;;;;;;;;;5019561;28;20028;-72
2022/02/06 12:08:25;;;;;;;16.90;8.00;;;;;;;;;;5020872;28;20025;-72
2022/02/06 12:10:51;;;;;;;10.88;7.18;;;;;;;;;;5021100;28;20021;-73
2022/02/06 12:13:38;;;;;;;13.40;6.95;;;;;;;;;;5021199;28;20051;-73
2022/02/06 12:16:06;;;;;;;11.23;7.35;;;;;;;;;;5019962;28;20078;-73
2022/02/06 12:18:32;;;;;;;19.38;6.93;;;;;;;;;;5018133;28;20037;-72
2022/02/06 12:21:10;;;;;;;13.90;6.50;;;;;;;;;;5020220;28;20097;-72
2022/02/06 12:23:47;;;;;;;11.68;6.10;;;;;;;;;;5007594;28;20026;-72
2022/02/06 12:26:29;;;;;;;12.18;6.15;;;;;;;;;;5002920;28;20030;-72
2022/02/06 12:29:02;;;;;;;11.77;6.88;;;;;;;;;;5000991;28;20056;-72
2022/02/06 12:31:33;;;;;;;15.85;6.95;;;;;;;;;;5002402;28;20032;-71
2022/02/06 12:37:26;;;;;;;14.98;6.97;;;;;;;;;;5001217;28;20026;-72
2022/02/06 12:39:32;;;;;;;13.07;7.20;;;;;;;;;;4996418;28;20045;-73
2022/02/06 12:41:59;;;;;;;17.58;7.68;;;;;;;;;;5002823;28;20474;-72
2022/02/06 12:44:26;;;;;;;12.20;8.07;;;;;;;;;;5004808;28;20021;-72
2022/02/06 12:46:52;;;;;;;11.48;7.20;;;;;;;;;;5021412;28;20121;-72
2022/02/06 12:49:27;;;;;;;11.63;6.82;;;;;;;;;;5020836;28;20033;-71
2022/02/06 12:51:57;;;;;;;20.60;9.40;;;;;;;;;;5021988;28;20025;-71
2022/02/06 12:54:23;;;;;;;16.13;9.00;;;;;;;;;;5023246;28;20037;-72
2022/02/06 12:56:50;;;;;;;23.05;12.98;;;;;;;;;;5022586;28;20013;-71
2022/02/06 12:59:21;;;;;;;24.88;11.00;;;;;;;;;;5021565;28;20623;-74
2022/02/06 13:01:48;;;;;;;17.30;10.57;;;;;;;;;;5021303;28;20041;-74
2022/02/06 13:04:16;;;;;;;19.00;10.15;;;;;;;;;;5023687;28;20018;-74
2022/02/06 13:06:46;;;;;;;17.20;8.13;;;;;;;;;;5004297;28;20017;-71
2022/02/06 13:09:28;;;;;;;14.05;7.60;;;;;;;;;;5020208;28;20025;-72
2022/02/06 13:12:34;;;;;;;13.23;6.75;;;;;;;;;;5021760;28;20033;-74
2022/02/06 13:31:38;;;;;;;27.15;15.15;;;;;;;;;;5019807;28;20361;-73
2022/02/06 13:33:37;;;;;;;22.70;14.15;;;;;;;;;;5005154;28;20138;-73
2022/02/06 13:38:36;;;;;;;26.38;17.52;;;;;;;;;;5018228;28;20029;-73
2022/02/06 13:41:02;;;;;;;25.92;17.48;;;;;;;;;;5019728;28;20064;-73
2022/02/06 13:43:38;;;;;;;24.20;16.58;;;;;;;;;;5019898;28;20030;-73
2022/02/06 13:46:12;;;;;;;20.08;10.77;;;;;;;;;;5019939;28;20040;-73
2022/02/06 13:48:38;;;;;;;60.22;20.50;;;;;;;;;;5019813;28;20029;-73
2022/02/06 13:51:07;;;;;;;16.30;7.70;;;;;;;;;;5018417;28;20036;-73
2022/02/06 13:53:35;;;;;;;17.52;6.80;;;;;;;;;;5004856;28;20095;-73
2022/02/06 13:56:06;;;;;;;14.70;6.90;;;;;;;;;;4998305;28;20029;-73
2022/02/06 13:58:34;;;;;;;12.63;5.80;;;;;;;;;;4999829;28;20022;-73
2022/02/06 14:01:07;;;;;;;29.50;12.20;;;;;;;;;;4999570;28;20661;-73
2022/02/06 14:03:45;;;;;;;10.40;6.07;;;;;;;;;;4999771;28;20606;-73
2022/02/06 14:06:13;;;;;;;10.35;7.50;;;;;;;;;;4980816;28;20026;-73
2022/02/06 14:08:55;;;;;;;16.38;8.77;;;;;;;;;;4999928;28;20850;-73
2022/02/06 14:11:28;;;;;;;14.52;6.40;;;;;;;;;;5009707;28;20021;-73
2022/02/06 14:14:14;;;;;;;18.00;6.10;;;;;;;;;;5019264;28;20124;-74
2022/02/06 14:16:44;;;;;;;10.80;6.57;;;;;;;;;;5017729;28;20030;-73
2022/02/06 14:19:11;;;;;;;13.27;5.68;;;;;;;;;;5019665;28;20520;-73
2022/02/06 14:21:44;;;;;;;11.27;4.43;;;;;;;;;;5025513;28;20066;-73
2022/02/06 14:24:10;;;;;;;14.95;5.97;;;;;;;;;;5024586;28;20028;-73
2022/02/06 14:26:37;;;;;;;13.52;4.30;;;;;;;;;;5043121;28;20068;-73
2022/02/06 14:29:03;;;;;;;14.65;4.55;;;;;;;;;;5042807;28;20629;-73
2022/02/06 14:31:33;;;;;;;17.02;5.43;;;;;;;;;;5041429;28;20100;-73
2022/02/06 14:34:15;;;;;;;12.75;4.50;;;;;;;;;;5042233;28;20091;-73
2022/02/06 14:36:43;;;;;;;9.13;4.10;;;;;;;;;;5042410;28;20033;-73
2022/02/06 14:39:09;;;;;;;9.95;3.95;;;;;;;;;;5041612;28;20128;-73
2022/02/06 14:41:59;;;;;;;10.00;3.75;;;;;;;;;;5030146;28;20103;-73
2022/02/06 14:44:26;;;;;;;8.82;3.17;;;;;;;;;;5022767;28;20029;-73
2022/02/06 14:46:53;;;;;;;7.90;3.65;;;;;;;;;;5021724;28;20117;-73
2022/02/06 14:49:19;;;;;;;16.88;4.78;;;;;;;;;;5022195;28;20128;-73
2022/02/06 14:51:47;;;;;;;10.88;4.47;;;;;;;;;;5020956;28;20093;-73
2022/02/06 14:54:20;;;;;;;11.52;3.75;;;;;;;;;;5020085;28;20511;-73
2022/02/06 14:56:48;;;;;;;12.63;5.18;;;;;;;;;;5022198;28;20034;-73
2022/02/06 14:59:15;;;;;;;13.35;4.95;;;;;;;;;;5021705;28;20037;-73
2022/02/06 15:01:41;;;;;;;13.05;4.38;;;;;;;;;;5022335;28;20105;-73
2022/02/06 15:04:10;;;;;;;11.63;3.70;;;;;;;;;;5020949;28;20026;-73
2022/02/06 15:06:36;;;;;;;12.80;3.92;;;;;;;;;;5022218;28;20604;-73
2022/02/06 15:09:02;;;;;;;11.43;3.78;;;;;;;;;;5022059;28;20128;-73
2022/02/06 15:11:28;;;;;;;12.05;4.07;;;;;;;;;;5021613;28;20083;-73
2022/02/06 15:13:55;;;;;;;13.02;6.80;;;;;;;;;;5021408;28;20092;-74
2022/02/06 15:16:25;;;;;;;13.82;6.05;;;;;;;;;;5022162;28;20472;-73
2022/02/06 15:18:59;;;;;;;11.55;5.10;;;;;;;;;;5020479;28;20041;-73
2022/02/06 15:21:25;;;;;;;14.82;4.88;;;;;;;;;;5024336;28;20021;-74
2022/02/06 15:23:51;;;;;;;11.65;4.90;;;;;;;;;;5041752;28;20063;-73
2022/02/06 15:26:17;;;;;;;13.98;5.00;;;;;;;;;;5041666;28;20032;-73
2022/02/06 15:28:45;;;;;;;8.73;3.72;;;;;;;;;;5040207;28;20036;-73
2022/02/06 15:31:12;;;;;;;15.65;4.47;;;;;;;;;;5041928;28;20711;-73
2022/02/06 15:33:38;;;;;;;11.82;4.82;;;;;;;;;;4999987;28;20046;-73
2022/02/06 15:36:04;;;;;;;10.90;4.78;;;;;;;;;;5000134;28;20110;-73
2022/02/06 15:38:32;;;;;;;12.38;4.85;;;;;;;;;;5001446;28;20065;-73
2022/02/06 15:41:00;;;;;;;13.18;4.60;;;;;;;;;;4999920;28;20387;-73
2022/02/06 15:43:26;;;;;;;15.15;6.43;;;;;;;;;;5001682;28;20025;-73
2022/02/06 15:45:52;;;;;;;16.38;8.07;;;;;;;;;;5001365;28;20054;-74
2022/02/06 15:48:18;;;;;;;15.05;7.55;;;;;;;;;;4999923;28;20037;-73
2022/02/06 15:50:44;;;;;;;23.20;13.23;;;;;;;;;;5001495;28;20037;-74
2022/02/06 15:53:11;;;;;;;18.95;9.82;;;;;;;;;;5001492;28;20030;-73
2022/02/06 15:55:37;;;;;;;19.13;12.05;;;;;;;;;;4994259;28;20076;-74
2022/02/06 15:58:03;;;;;;;54.28;10.52;;;;;;;;;;5000181;28;20026;-74
2022/02/06 16:00:29;;;;;;;14.73;6.78;;;;;;;;;;4999348;28;20850;-73
2022/02/06 16:02:55;;;;;;;13.98;6.68;;;;;;;;;;5000706;28;20061;-74
2022/02/06 16:05:21;;;;;;;15.40;6.47;;;;;;;;;;5000230;28;20040;-72
2022/02/06 16:07:48;;;;;;;18.75;7.00;;;;;;;;;;5001146;28;20075;-72
2022/02/06 16:10:15;;;;;;;13.68;7.22;;;;;;;;;;4998729;28;20045;-72
2022/02/06 16:12:41;;;;;;;14.18;6.63;;;;;;;;;;5001297;28;20033;-74
2022/02/06 16:15:08;;;;;;;13.38;6.15;;;;;;;;;;4999787;28;20076;-73
2022/02/06 16:17:35;;;;;;;12.93;5.53;;;;;;;;;;4999747;28;20018;-73
2022/02/06 16:20:02;;;;;;;17.65;5.32;;;;;;;;;;5000461;28;20100;-73
2022/02/06 16:22:29;;;;;;;16.65;5.78;;;;;;;;;;5012198;28;20021;-74
2022/02/06 16:24:55;;;;;;;12.32;6.03;;;;;;;;;;5006171;28;20040;-73
2022/02/06 16:27:21;;;;;;;12.57;5.88;;;;;;;;;;5000808;28;20091;-73
2022/02/06 16:29:47;;;;;;;17.73;7.40;;;;;;;;;;4999942;28;20096;-73
2022/02/06 16:32:13;;;;;;;16.55;7.72;;;;;;;;;;4996842;28;20033;-73
2022/02/06 16:34:42;;;;;;;17.05;7.68;;;;;;;;;;5010383;28;20140;-73
2022/02/06 16:37:09;;;;;;;15.85;7.80;;;;;;;;;;5019148;28;20018;-72
2022/02/06 16:39:40;;;;;;;17.17;6.78;;;;;;;;;;5019132;28;20024;-72
2022/02/06 16:42:06;;;;;;;18.98;7.43;;;;;;;;;;5007706;28;20037;-72
2022/02/06 16:44:32;;;;;;;14.93;5.38;;;;;;;;;;5012984;28;20029;-72
2022/02/06 16:46:58;;;;;;;11.57;5.47;;;;;;;;;;5018476;28;20040;-72
2022/02/06 16:49:24;;;;;;;14.75;5.82;;;;;;;;;;5018726;28;20094;-72
2022/02/06 16:51:50;;;;;;;13.20;5.70;;;;;;;;;;5019587;28;20029;-72
2022/02/06 16:54:17;;;;;;;16.17;6.15;;;;;;;;;;4987331;28;20195;-72
2022/02/06 16:56:43;;;;;;;16.27;7.18;;;;;;;;;;5015303;28;20025;-72
2022/02/06 16:59:09;;;;;;;13.20;6.40;;;;;;;;;;5019343;28;20033;-72
2022/02/06 17:01:35;;;;;;;12.82;6.32;;;;;;;;;;5019538;28;20033;-72
2022/02/06 17:04:01;;;;;;;14.10;5.97;;;;;;;;;;5019284;28;20029;-71
2022/02/06 17:06:27;;;;;;;10.43;5.53;;;;;;;;;;5019509;28;20032;-72
2022/02/06 17:08:54;;;;;;;11.05;5.50;;;;;;;;;;5014489;28;20731;-72
2022/02/06 17:11:20;;;;;;;13.52;5.63;;;;;;;;;;5013840;28;20072;-73
2022/02/06 17:13:46;;;;;;;10.27;4.72;;;;;;;;;;5017279;28;20029;-72
2022/02/06 17:16:12;;;;;;;15.77;5.68;;;;;;;;;;5018214;28;20033;-71
2022/02/06 17:18:39;;;;;;;13.43;5.70;;;;;;;;;;5018701;28;20774;-72
2022/02/06 17:21:07;;;;;;;9.60;4.70;;;;;;;;;;5018545;28;20537;-72
2022/02/06 17:23:33;;;;;;;14.23;5.63;;;;;;;;;;5020833;28;20037;-72
2022/02/06 17:25:59;;;;;;;12.07;5.70;;;;;;;;;;5018564;28;20025;-72
2022/02/06 17:28:29;;;;;;;10.70;6.28;;;;;;;;;;5018202;28;20076;-73
2022/02/06 17:30:55;;;;;;;14.75;6.20;;;;;;;;;;5018493;28;20136;-73